sensor_id;sensor_type;location;lat;lon;timestamp;temperature;humidity
19829;DHT22;10075;50.924;4.396;2022-08-21T00:02:14;18.80;99.30
19829;DHT22;10075;50.924;4.396;2022-08-21T00:04:41;18.80;99.40
19829;DHT22;10075;50.924;4.396;2022-08-21T00:07:08;18.80;99.60
19829;DHT22;10075;50.924;4.396;2022-08-21T00:09:35;18.70;99.80
19829;DHT22;10075;50.924;4.396;2022-08-21T00:12:05;18.60;99.90
19829;DHT22;10075;50.924;4.396;2022-08-21T00:14:33;18.70;99.90
19829;DHT22;10075;50.924;4.396;2022-08-21T00:17:01;18.70;99.90
19829;DHT22;10075;50.924;4.396;2022-08-21T00:19:28;18.70;99.90
19829;DHT22;10075;50.924;4.396;2022-08-21T00:21:56;18.60;99.90
19829;DHT22;10075;50.924;4.396;2022-08-21T00:24:23;18.50;99.90
19829;DHT22;10075;50.924;4.396;2022-08-21T00:26:51;18.50;99.90
19829;DHT22;10075;50.924;4.396;2022-08-21T00:29:18;18.50;99.90
19829;DHT22;10075;50.924;4.396;2022-08-21T00:31:45;18.40;99.90
19829;DHT22;10075;50.924;4.396;2022-08-21T00:34:14;18.40;99.90
19829;DHT22;10075;50.924;4.396;2022-08-21T00:36:41;18.40;99.90
19829;DHT22;10075;50.924;4.396;2022-08-21T00:39:09;18.40;99.90
19829;DHT22;10075;50.924;4.396;2022-08-21T00:41:37;18.30;99.90
19829;DHT22;10075;50.924;4.396;2022-08-21T00:44:05;18.30;99.90
19829;DHT22;10075;50.924;4.396;2022-08-21T00:46:33;18.30;99.90
19829;DHT22;10075;50.924;4.396;2022-08-21T00:49:00;18.20;99.90
19829;DHT22;10075;50.924;4.396;2022-08-21T00:51:34;18.10;99.90
19829;DHT22;10075;50.924;4.396;2022-08-21T00:54:02;18.10;99.90
19829;DHT22;10075;50.924;4.396;2022-08-21T00:56:30;18.10;99.90
19829;DHT22;10075;50.924;4.396;2022-08-21T00:58:57;18.10;99.90
19829;DHT22;10075;50.924;4.396;2022-08-21T01:01:25;18.00;99.90
19829;DHT22;10075;50.924;4.396;2022-08-21T01:03:53;18.00;99.90
19829;DHT22;10075;50.924;4.396;2022-08-21T01:06:20;17.90;99.90
19829;DHT22;10075;50.924;4.396;2022-08-21T01:08:48;17.90;99.90
19829;DHT22;10075;50.924;4.396;2022-08-21T01:11:16;17.90;99.90
19829;DHT22;10075;50.924;4.396;2022-08-21T01:13:43;17.90;99.90
19829;DHT22;10075;50.924;4.396;2022-08-21T01:16:16;17.80;99.90
19829;DHT22;10075;50.924;4.396;2022-08-21T01:18:44;17.80;99.90
19829;DHT22;10075;50.924;4.396;2022-08-21T01:21:15;17.80;99.90
19829;DHT22;10075;50.924;4.396;2022-08-21T01:23:45;17.80;99.90
19829;DHT22;10075;50.924;4.396;2022-08-21T01:26:14;17.70;99.90
19829;DHT22;10075;50.924;4.396;2022-08-21T01:28:47;17.70;99.90
19829;DHT22;10075;50.924;4.396;2022-08-21T01:31:18;17.60;99.90
19829;DHT22;10075;50.924;4.396;2022-08-21T01:33:46;17.60;99.90
19829;DHT22;10075;50.924;4.396;2022-08-21T01:36:15;17.50;99.90
19829;DHT22;10075;50.924;4.396;2022-08-21T01:38:42;17.50;99.90
19829;DHT22;10075;50.924;4.396;2022-08-21T01:41:09;17.50;99.90
19829;DHT22;10075;50.924;4.396;2022-08-21T01:43:36;17.50;99.90
19829;DHT22;10075;50.924;4.396;2022-08-21T01:46:04;17.40;99.90
19829;DHT22;10075;50.924;4.396;2022-08-21T01:48:31;17.40;99.90
19829;DHT22;10075;50.924;4.396;2022-08-21T01:50:58;17.30;99.90
19829;DHT22;10075;50.924;4.396;2022-08-21T01:53:27;17.30;99.90
19829;DHT22;10075;50.924;4.396;2022-08-21T01:55:54;17.30;99.90
19829;DHT22;10075;50.924;4.396;2022-08-21T01:58:21;17.30;99.90
19829;DHT22;10075;50.924;4.396;2022-08-21T02:00:48;17.30;99.90
19829;DHT22;10075;50.924;4.396;2022-08-21T02:03:16;17.30;99.90
19829;DHT22;10075;50.924;4.396;2022-08-21T02:05:42;17.30;99.90
19829;DHT22;10075;50.924;4.396;2022-08-21T02:08:09;17.30;99.90
19829;DHT22;10075;50.924;4.396;2022-08-21T02:10:38;17.30;99.90
19829;DHT22;10075;50.924;4.396;2022-08-21T02:13:06;17.30;99.90
19829;DHT22;10075;50.924;4.396;2022-08-21T02:15:34;17.30;99.90
19829;DHT22;10075;50.924;4.396;2022-08-21T02:18:01;17.30;99.90
19829;DHT22;10075;50.924;4.396;2022-08-21T02:20:31;17.30;99.90
19829;DHT22;10075;50.924;4.396;2022-08-21T02:22:58;17.30;99.90
19829;DHT22;10075;50.924;4.396;2022-08-21T02:25:27;17.30;99.90
19829;DHT22;10075;50.924;4.396;2022-08-21T02:27:56;17.30;99.90
19829;DHT22;10075;50.924;4.396;2022-08-21T02:30:25;17.20;99.90
19829;DHT22;10075;50.924;4.396;2022-08-21T02:32:52;17.20;99.90
19829;DHT22;10075;50.924;4.396;2022-08-21T02:35:20;17.20;99.90
19829;DHT22;10075;50.924;4.396;2022-08-21T02:37:50;17.20;99.90
19829;DHT22;10075;50.924;4.396;2022-08-21T02:40:19;17.10;99.90
19829;DHT22;10075;50.924;4.396;2022-08-21T02:42:46;17.10;99.90
19829;DHT22;10075;50.924;4.396;2022-08-21T02:45:16;17.10;99.90
19829;DHT22;10075;50.924;4.396;2022-08-21T02:47:47;17.10;99.90
19829;DHT22;10075;50.924;4.396;2022-08-21T02:50:18;17.10;99.90
19829;DHT22;10075;50.924;4.396;2022-08-21T02:52:45;17.10;99.90
19829;DHT22;10075;50.924;4.396;2022-08-21T02:55:12;17.00;99.90
19829;DHT22;10075;50.924;4.396;2022-08-21T02:57:39;17.10;99.90
19829;DHT22;10075;50.924;4.396;2022-08-21T03:00:08;17.10;99.90
19829;DHT22;10075;50.924;4.396;2022-08-21T03:02:37;17.10;99.90
19829;DHT22;10075;50.924;4.396;2022-08-21T03:05:05;17.10;99.90
19829;DHT22;10075;50.924;4.396;2022-08-21T03:07:32;17.10;99.90
19829;DHT22;10075;50.924;4.396;2022-08-21T03:09:59;17.00;99.90
19829;DHT22;10075;50.924;4.396;2022-08-21T03:12:26;17.00;99.90
19829;DHT22;10075;50.924;4.396;2022-08-21T03:14:53;16.90;99.90
19829;DHT22;10075;50.924;4.396;2022-08-21T03:17:20;16.90;99.90
19829;DHT22;10075;50.924;4.396;2022-08-21T03:19:48;16.90;99.90
19829;DHT22;10075;50.924;4.396;2022-08-21T03:22:15;16.90;99.90
19829;DHT22;10075;50.924;4.396;2022-08-21T03:24:42;16.80;99.90
19829;DHT22;10075;50.924;4.396;2022-08-21T03:27:10;16.80;99.90
19829;DHT22;10075;50.924;4.396;2022-08-21T03:29:39;16.80;99.90
19829;DHT22;10075;50.924;4.396;2022-08-21T03:32:06;16.80;99.90
19829;DHT22;10075;50.924;4.396;2022-08-21T03:34:34;16.70;99.90
19829;DHT22;10075;50.924;4.396;2022-08-21T03:37:03;16.80;99.90
19829;DHT22;10075;50.924;4.396;2022-08-21T03:39:30;16.80;99.90
19829;DHT22;10075;50.924;4.396;2022-08-21T03:41:57;16.70;99.90
19829;DHT22;10075;50.924;4.396;2022-08-21T03:44:25;16.70;99.90
19829;DHT22;10075;50.924;4.396;2022-08-21T03:46:56;16.70;99.90
19829;DHT22;10075;50.924;4.396;2022-08-21T03:49:24;16.70;99.90
19829;DHT22;10075;50.924;4.396;2022-08-21T03:51:51;16.70;99.90
19829;DHT22;10075;50.924;4.396;2022-08-21T03:54:19;16.70;99.90
19829;DHT22;10075;50.924;4.396;2022-08-21T03:56:46;16.70;99.90
19829;DHT22;10075;50.924;4.396;2022-08-21T03:59:13;16.60;99.90
19829;DHT22;10075;50.924;4.396;2022-08-21T04:01:51;16.60;99.90
19829;DHT22;10075;50.924;4.396;2022-08-21T04:04:18;16.60;99.90
19829;DHT22;10075;50.924;4.396;2022-08-21T04:06:45;16.50;99.90
19829;DHT22;10075;50.924;4.396;2022-08-21T04:09:12;16.50;99.90
19829;DHT22;10075;50.924;4.396;2022-08-21T04:11:40;16.50;99.90
19829;DHT22;10075;50.924;4.396;2022-08-21T04:14:07;16.50;99.90
19829;DHT22;10075;50.924;4.396;2022-08-21T04:16:34;16.50;99.90
19829;DHT22;10075;50.924;4.396;2022-08-21T04:19:01;16.40;99.90
19829;DHT22;10075;50.924;4.396;2022-08-21T04:21:28;16.40;99.90
19829;DHT22;10075;50.924;4.396;2022-08-21T04:23:56;16.40;99.90
19829;DHT22;10075;50.924;4.396;2022-08-21T04:26:23;16.40;99.90
19829;DHT22;10075;50.924;4.396;2022-08-21T04:28:52;16.40;99.90
19829;DHT22;10075;50.924;4.396;2022-08-21T04:31:23;16.40;99.90
19829;DHT22;10075;50.924;4.396;2022-08-21T04:33:50;16.40;99.90
19829;DHT22;10075;50.924;4.396;2022-08-21T04:36:17;16.40;99.90
19829;DHT22;10075;50.924;4.396;2022-08-21T04:38:44;16.50;99.90
19829;DHT22;10075;50.924;4.396;2022-08-21T04:41:11;16.50;99.90
19829;DHT22;10075;50.924;4.396;2022-08-21T04:43:39;16.50;99.90
19829;DHT22;10075;50.924;4.396;2022-08-21T04:46:07;16.50;99.90
19829;DHT22;10075;50.924;4.396;2022-08-21T04:48:35;16.50;99.90
19829;DHT22;10075;50.924;4.396;2022-08-21T04:51:05;16.50;99.90
19829;DHT22;10075;50.924;4.396;2022-08-21T04:53:37;16.50;99.90
19829;DHT22;10075;50.924;4.396;2022-08-21T04:56:07;16.60;99.90
19829;DHT22;10075;50.924;4.396;2022-08-21T04:58:36;16.60;99.90
19829;DHT22;10075;50.924;4.396;2022-08-21T05:01:04;16.60;99.90
19829;DHT22;10075;50.924;4.396;2022-08-21T05:03:36;16.60;99.90
19829;DHT22;10075;50.924;4.396;2022-08-21T05:06:05;16.60;99.90
19829;DHT22;10075;50.924;4.396;2022-08-21T05:08:33;16.70;99.90
19829;DHT22;10075;50.924;4.396;2022-08-21T05:11:02;16.70;99.90
19829;DHT22;10075;50.924;4.396;2022-08-21T05:13:30;16.80;99.90
19829;DHT22;10075;50.924;4.396;2022-08-21T05:15:57;16.80;99.90
19829;DHT22;10075;50.924;4.396;2022-08-21T05:18:24;16.90;99.90
19829;DHT22;10075;50.924;4.396;2022-08-21T05:20:52;16.90;99.90
19829;DHT22;10075;50.924;4.396;2022-08-21T05:23:19;16.90;99.90
19829;DHT22;10075;50.924;4.396;2022-08-21T05:25:46;16.90;99.90
19829;DHT22;10075;50.924;4.396;2022-08-21T05:28:13;16.90;99.90
19829;DHT22;10075;50.924;4.396;2022-08-21T05:30:41;17.00;99.90
19829;DHT22;10075;50.924;4.396;2022-08-21T05:33:07;17.00;99.90
19829;DHT22;10075;50.924;4.396;2022-08-21T05:35:35;17.00;99.90
19829;DHT22;10075;50.924;4.396;2022-08-21T05:38:05;17.10;99.90
19829;DHT22;10075;50.924;4.396;2022-08-21T05:40:32;17.20;99.90
19829;DHT22;10075;50.924;4.396;2022-08-21T05:42:59;17.20;99.90
19829;DHT22;10075;50.924;4.396;2022-08-21T05:45:28;17.30;99.90
19829;DHT22;10075;50.924;4.396;2022-08-21T05:47:55;17.30;99.90
19829;DHT22;10075;50.924;4.396;2022-08-21T05:50:22;17.40;99.90
19829;DHT22;10075;50.924;4.396;2022-08-21T05:52:49;17.40;99.90
19829;DHT22;10075;50.924;4.396;2022-08-21T05:55:18;17.60;99.90
19829;DHT22;10075;50.924;4.396;2022-08-21T05:57:45;17.70;99.90
19829;DHT22;10075;50.924;4.396;2022-08-21T06:00:12;17.70;99.90
19829;DHT22;10075;50.924;4.396;2022-08-21T06:02:39;17.80;99.90
19829;DHT22;10075;50.924;4.396;2022-08-21T06:05:07;17.90;99.90
19829;DHT22;10075;50.924;4.396;2022-08-21T06:07:34;17.90;99.90
19829;DHT22;10075;50.924;4.396;2022-08-21T06:10:02;18.10;99.90
19829;DHT22;10075;50.924;4.396;2022-08-21T06:12:30;18.10;99.90
19829;DHT22;10075;50.924;4.396;2022-08-21T06:14:57;18.20;99.90
19829;DHT22;10075;50.924;4.396;2022-08-21T06:17:24;18.30;99.90
19829;DHT22;10075;50.924;4.396;2022-08-21T06:19:51;18.30;99.90
19829;DHT22;10075;50.924;4.396;2022-08-21T06:22:19;18.30;99.90
19829;DHT22;10075;50.924;4.396;2022-08-21T06:24:46;18.40;99.90
19829;DHT22;10075;50.924;4.396;2022-08-21T06:27:13;18.40;99.90
19829;DHT22;10075;50.924;4.396;2022-08-21T06:29:42;18.50;99.90
19829;DHT22;10075;50.924;4.396;2022-08-21T06:32:11;18.60;99.90
19829;DHT22;10075;50.924;4.396;2022-08-21T06:34:40;18.70;99.90
19829;DHT22;10075;50.924;4.396;2022-08-21T06:37:08;18.80;99.90
19829;DHT22;10075;50.924;4.396;2022-08-21T06:39:35;18.80;99.90
19829;DHT22;10075;50.924;4.396;2022-08-21T06:42:03;18.90;99.90
19829;DHT22;10075;50.924;4.396;2022-08-21T06:44:30;19.00;99.90
19829;DHT22;10075;50.924;4.396;2022-08-21T06:46:59;19.00;99.90
19829;DHT22;10075;50.924;4.396;2022-08-21T06:49:26;19.10;99.90
19829;DHT22;10075;50.924;4.396;2022-08-21T06:51:53;19.20;99.90
19829;DHT22;10075;50.924;4.396;2022-08-21T06:54:19;19.30;99.90
19829;DHT22;10075;50.924;4.396;2022-08-21T06:56:46;19.40;99.90
19829;DHT22;10075;50.924;4.396;2022-08-21T06:59:15;19.50;99.90
19829;DHT22;10075;50.924;4.396;2022-08-21T07:01:42;19.60;99.90
19829;DHT22;10075;50.924;4.396;2022-08-21T07:04:11;19.70;99.90
19829;DHT22;10075;50.924;4.396;2022-08-21T07:06:38;19.80;99.90
19829;DHT22;10075;50.924;4.396;2022-08-21T07:09:05;20.00;99.90
19829;DHT22;10075;50.924;4.396;2022-08-21T07:11:32;20.00;99.90
19829;DHT22;10075;50.924;4.396;2022-08-21T07:13:59;20.10;99.90
19829;DHT22;10075;50.924;4.396;2022-08-21T07:16:25;20.30;99.90
19829;DHT22;10075;50.924;4.396;2022-08-21T07:18:52;20.40;99.90
19829;DHT22;10075;50.924;4.396;2022-08-21T07:21:21;20.50;99.90
19829;DHT22;10075;50.924;4.396;2022-08-21T07:23:50;20.60;99.90
19829;DHT22;10075;50.924;4.396;2022-08-21T07:26:19;20.70;99.90
19829;DHT22;10075;50.924;4.396;2022-08-21T07:28:46;20.80;99.90
19829;DHT22;10075;50.924;4.396;2022-08-21T07:31:15;20.80;99.90
19829;DHT22;10075;50.924;4.396;2022-08-21T07:33:42;20.90;99.90
19829;DHT22;10075;50.924;4.396;2022-08-21T07:36:10;21.00;99.90
19829;DHT22;10075;50.924;4.396;2022-08-21T07:38:38;21.00;99.90
19829;DHT22;10075;50.924;4.396;2022-08-21T07:41:10;21.10;99.90
19829;DHT22;10075;50.924;4.396;2022-08-21T07:43:39;21.10;99.90
19829;DHT22;10075;50.924;4.396;2022-08-21T07:46:06;21.10;99.90
19829;DHT22;10075;50.924;4.396;2022-08-21T07:48:33;21.30;99.90
19829;DHT22;10075;50.924;4.396;2022-08-21T07:51:04;21.30;99.90
19829;DHT22;10075;50.924;4.396;2022-08-21T07:53:32;21.30;99.90
19829;DHT22;10075;50.924;4.396;2022-08-21T07:56:00;21.30;99.90
19829;DHT22;10075;50.924;4.396;2022-08-21T07:58:27;21.40;99.90
19829;DHT22;10075;50.924;4.396;2022-08-21T08:00:54;21.50;99.90
19829;DHT22;10075;50.924;4.396;2022-08-21T08:03:21;21.60;99.90
19829;DHT22;10075;50.924;4.396;2022-08-21T08:05:48;21.80;99.90
19829;DHT22;10075;50.924;4.396;2022-08-21T08:08:15;22.00;99.90
19829;DHT22;10075;50.924;4.396;2022-08-21T08:10:42;22.20;99.90
19829;DHT22;10075;50.924;4.396;2022-08-21T08:13:11;22.30;99.90
19829;DHT22;10075;50.924;4.396;2022-08-21T08:15:37;22.30;99.90
19829;DHT22;10075;50.924;4.396;2022-08-21T08:18:04;22.30;99.90
19829;DHT22;10075;50.924;4.396;2022-08-21T08:20:31;22.50;99.90
19829;DHT22;10075;50.924;4.396;2022-08-21T08:22:58;22.40;99.90
19829;DHT22;10075;50.924;4.396;2022-08-21T08:25:26;22.60;99.90
19829;DHT22;10075;50.924;4.396;2022-08-21T08:27:53;22.50;99.90
19829;DHT22;10075;50.924;4.396;2022-08-21T08:30:22;22.60;99.90
19829;DHT22;10075;50.924;4.396;2022-08-21T08:32:49;22.70;99.90
19829;DHT22;10075;50.924;4.396;2022-08-21T08:35:17;22.70;99.90
19829;DHT22;10075;50.924;4.396;2022-08-21T08:37:44;22.90;99.90
19829;DHT22;10075;50.924;4.396;2022-08-21T08:40:16;22.80;99.90
19829;DHT22;10075;50.924;4.396;2022-08-21T08:42:46;22.70;98.80
19829;DHT22;10075;50.924;4.396;2022-08-21T08:45:18;22.50;99.80
19829;DHT22;10075;50.924;4.396;2022-08-21T08:47:49;22.40;99.50
19829;DHT22;10075;50.924;4.396;2022-08-21T08:50:25;22.30;99.90
19829;DHT22;10075;50.924;4.396;2022-08-21T08:52:58;22.40;99.90
19829;DHT22;10075;50.924;4.396;2022-08-21T08:55:30;22.60;99.90
19829;DHT22;10075;50.924;4.396;2022-08-21T08:57:59;22.80;99.90
19829;DHT22;10075;50.924;4.396;2022-08-21T09:00:28;22.90;98.40
19829;DHT22;10075;50.924;4.396;2022-08-21T09:03:00;22.90;98.20
19829;DHT22;10075;50.924;4.396;2022-08-21T09:05:30;22.90;97.80
19829;DHT22;10075;50.924;4.396;2022-08-21T09:08:24;22.90;97.90
19829;DHT22;10075;50.924;4.396;2022-08-21T09:11:01;22.90;98.40
19829;DHT22;10075;50.924;4.396;2022-08-21T09:13:37;22.90;98.50
19829;DHT22;10075;50.924;4.396;2022-08-21T09:16:15;22.90;97.40
19829;DHT22;10075;50.924;4.396;2022-08-21T09:18:54;23.10;97.60
19829;DHT22;10075;50.924;4.396;2022-08-21T09:21:30;23.20;97.60
19829;DHT22;10075;50.924;4.396;2022-08-21T09:24:09;23.50;97.20
19829;DHT22;10075;50.924;4.396;2022-08-21T09:26:47;23.80;96.30
19829;DHT22;10075;50.924;4.396;2022-08-21T09:29:21;24.00;95.30
19829;DHT22;10075;50.924;4.396;2022-08-21T09:31:50;24.20;95.10
19829;DHT22;10075;50.924;4.396;2022-08-21T09:34:28;24.50;95.30
19829;DHT22;10075;50.924;4.396;2022-08-21T09:36:57;24.90;94.30
19829;DHT22;10075;50.924;4.396;2022-08-21T09:39:26;25.20;93.20
19829;DHT22;10075;50.924;4.396;2022-08-21T09:41:58;25.40;93.30
19829;DHT22;10075;50.924;4.396;2022-08-21T09:44:27;25.50;91.80
19829;DHT22;10075;50.924;4.396;2022-08-21T09:46:56;25.60;91.90
19829;DHT22;10075;50.924;4.396;2022-08-21T09:49:32;25.70;91.50
19829;DHT22;10075;50.924;4.396;2022-08-21T09:52:02;25.70;91.80
19829;DHT22;10075;50.924;4.396;2022-08-21T09:54:34;25.70;90.60
19829;DHT22;10075;50.924;4.396;2022-08-21T09:57:11;25.50;90.90
19829;DHT22;10075;50.924;4.396;2022-08-21T10:00:08;25.40;91.00
19829;DHT22;10075;50.924;4.396;2022-08-21T10:02:37;25.30;91.00
19829;DHT22;10075;50.924;4.396;2022-08-21T10:05:14;25.00;91.20
19829;DHT22;10075;50.924;4.396;2022-08-21T10:07:42;24.90;91.20
19829;DHT22;10075;50.924;4.396;2022-08-21T10:10:14;24.70;91.60
19829;DHT22;10075;50.924;4.396;2022-08-21T10:12:49;24.60;92.30
19829;DHT22;10075;50.924;4.396;2022-08-21T10:15:22;24.60;92.60
19829;DHT22;10075;50.924;4.396;2022-08-21T10:17:58;24.60;92.30
19829;DHT22;10075;50.924;4.396;2022-08-21T10:20:36;24.60;92.10
19829;DHT22;10075;50.924;4.396;2022-08-21T10:23:20;24.60;92.50
19829;DHT22;10075;50.924;4.396;2022-08-21T10:25:57;24.60;93.10
19829;DHT22;10075;50.924;4.396;2022-08-21T10:28:32;24.90;92.10
19829;DHT22;10075;50.924;4.396;2022-08-21T10:31:10;25.00;92.10
19829;DHT22;10075;50.924;4.396;2022-08-21T10:33:46;25.20;91.40
19829;DHT22;10075;50.924;4.396;2022-08-21T10:36:21;25.30;91.70
19829;DHT22;10075;50.924;4.396;2022-08-21T10:38:59;25.50;91.70
19829;DHT22;10075;50.924;4.396;2022-08-21T10:41:43;25.80;91.80
19829;DHT22;10075;50.924;4.396;2022-08-21T10:44:23;26.00;90.60
19829;DHT22;10075;50.924;4.396;2022-08-21T10:46:58;26.20;90.00
19829;DHT22;10075;50.924;4.396;2022-08-21T10:49:38;26.40;89.90
19829;DHT22;10075;50.924;4.396;2022-08-21T10:52:23;26.60;89.60
19829;DHT22;10075;50.924;4.396;2022-08-21T10:55:00;26.60;89.20
19829;DHT22;10075;50.924;4.396;2022-08-21T10:57:34;26.50;88.20
19829;DHT22;10075;50.924;4.396;2022-08-21T11:00:06;26.30;89.40
19829;DHT22;10075;50.924;4.396;2022-08-21T11:02:40;26.20;89.80
19829;DHT22;10075;50.924;4.396;2022-08-21T11:05:12;26.40;88.90
19829;DHT22;10075;50.924;4.396;2022-08-21T11:07:46;26.40;88.60
19829;DHT22;10075;50.924;4.396;2022-08-21T11:10:21;26.20;88.50
19829;DHT22;10075;50.924;4.396;2022-08-21T11:12:52;26.10;90.00
19829;DHT22;10075;50.924;4.396;2022-08-21T11:15:33;26.20;90.10
19829;DHT22;10075;50.924;4.396;2022-08-21T11:18:12;26.30;87.70
19829;DHT22;10075;50.924;4.396;2022-08-21T11:20:48;26.20;87.70
19829;DHT22;10075;50.924;4.396;2022-08-21T11:23:22;26.10;88.20
19829;DHT22;10075;50.924;4.396;2022-08-21T11:25:55;25.90;88.40
19829;DHT22;10075;50.924;4.396;2022-08-21T11:28:26;25.80;90.00
19829;DHT22;10075;50.924;4.396;2022-08-21T11:31:02;25.80;89.40
19829;DHT22;10075;50.924;4.396;2022-08-21T11:33:52;26.00;89.20
19829;DHT22;10075;50.924;4.396;2022-08-21T11:36:27;26.20;89.10
19829;DHT22;10075;50.924;4.396;2022-08-21T11:39:06;26.30;87.60
19829;DHT22;10075;50.924;4.396;2022-08-21T11:41:40;26.50;88.60
19829;DHT22;10075;50.924;4.396;2022-08-21T11:44:15;26.30;87.70
19829;DHT22;10075;50.924;4.396;2022-08-21T11:46:48;26.00;87.00
19829;DHT22;10075;50.924;4.396;2022-08-21T11:49:38;25.70;88.00
19829;DHT22;10075;50.924;4.396;2022-08-21T11:52:16;25.60;88.40
19829;DHT22;10075;50.924;4.396;2022-08-21T11:54:48;25.70;88.00
19829;DHT22;10075;50.924;4.396;2022-08-21T11:57:21;25.80;88.30
19829;DHT22;10075;50.924;4.396;2022-08-21T11:59:52;25.90;88.00
19829;DHT22;10075;50.924;4.396;2022-08-21T12:02:22;25.90;86.70
19829;DHT22;10075;50.924;4.396;2022-08-21T12:04:54;25.80;85.40
19829;DHT22;10075;50.924;4.396;2022-08-21T12:07:36;25.80;85.40
19829;DHT22;10075;50.924;4.396;2022-08-21T12:10:10;25.90;87.00
19829;DHT22;10075;50.924;4.396;2022-08-21T12:12:38;26.00;85.50
19829;DHT22;10075;50.924;4.396;2022-08-21T12:15:24;26.20;85.80
19829;DHT22;10075;50.924;4.396;2022-08-21T12:17:55;26.30;86.70
19829;DHT22;10075;50.924;4.396;2022-08-21T12:20:43;26.50;86.50
19829;DHT22;10075;50.924;4.396;2022-08-21T12:23:25;26.90;85.60
19829;DHT22;10075;50.924;4.396;2022-08-21T12:26:25;27.20;84.80
19829;DHT22;10075;50.924;4.396;2022-08-21T12:29:04;27.50;84.10
19829;DHT22;10075;50.924;4.396;2022-08-21T12:31:32;27.80;82.70
19829;DHT22;10075;50.924;4.396;2022-08-21T12:34:04;27.90;77.20
19829;DHT22;10075;50.924;4.396;2022-08-21T12:36:42;27.70;76.90
19829;DHT22;10075;50.924;4.396;2022-08-21T12:39:15;27.60;78.80
19829;DHT22;10075;50.924;4.396;2022-08-21T12:41:51;27.60;79.90
19829;DHT22;10075;50.924;4.396;2022-08-21T12:44:24;27.90;78.70
19829;DHT22;10075;50.924;4.396;2022-08-21T12:46:54;28.20;78.40
19829;DHT22;10075;50.924;4.396;2022-08-21T12:49:28;28.40;75.70
19829;DHT22;10075;50.924;4.396;2022-08-21T12:52:02;28.40;75.60
19829;DHT22;10075;50.924;4.396;2022-08-21T12:54:32;28.20;75.30
19829;DHT22;10075;50.924;4.396;2022-08-21T12:57:06;28.00;77.40
19829;DHT22;10075;50.924;4.396;2022-08-21T12:59:37;28.00;77.80
19829;DHT22;10075;50.924;4.396;2022-08-21T13:02:16;27.80;77.90
19829;DHT22;10075;50.924;4.396;2022-08-21T13:04:44;27.70;75.50
19829;DHT22;10075;50.924;4.396;2022-08-21T13:07:16;27.40;76.70
19829;DHT22;10075;50.924;4.396;2022-08-21T13:09:48;27.30;77.90
19829;DHT22;10075;50.924;4.396;2022-08-21T13:12:21;27.30;79.10
19829;DHT22;10075;50.924;4.396;2022-08-21T13:14:51;27.30;78.70
19829;DHT22;10075;50.924;4.396;2022-08-21T13:17:19;27.20;77.90
19829;DHT22;10075;50.924;4.396;2022-08-21T13:19:54;27.30;78.60
19829;DHT22;10075;50.924;4.396;2022-08-21T13:22:21;27.50;78.40
19829;DHT22;10075;50.924;4.396;2022-08-21T13:24:48;27.70;78.30
19829;DHT22;10075;50.924;4.396;2022-08-21T13:27:20;27.80;77.80
19829;DHT22;10075;50.924;4.396;2022-08-21T13:29:47;28.00;77.20
19829;DHT22;10075;50.924;4.396;2022-08-21T13:32:21;28.00;74.90
19829;DHT22;10075;50.924;4.396;2022-08-21T13:34:49;27.90;76.30
19829;DHT22;10075;50.924;4.396;2022-08-21T13:37:17;27.80;76.10
19829;DHT22;10075;50.924;4.396;2022-08-21T13:39:49;27.80;76.40
19829;DHT22;10075;50.924;4.396;2022-08-21T13:42:17;27.90;75.40
19829;DHT22;10075;50.924;4.396;2022-08-21T13:44:47;27.90;76.10
19829;DHT22;10075;50.924;4.396;2022-08-21T13:47:15;27.90;76.60
19829;DHT22;10075;50.924;4.396;2022-08-21T13:49:45;28.00;75.10
19829;DHT22;10075;50.924;4.396;2022-08-21T13:52:15;28.00;75.10
19829;DHT22;10075;50.924;4.396;2022-08-21T13:54:43;28.00;75.40
19829;DHT22;10075;50.924;4.396;2022-08-21T13:57:25;28.00;76.00
19829;DHT22;10075;50.924;4.396;2022-08-21T14:00:10;28.20;74.70
19829;DHT22;10075;50.924;4.396;2022-08-21T14:02:39;28.10;73.40
19829;DHT22;10075;50.924;4.396;2022-08-21T14:05:07;28.10;73.90
19829;DHT22;10075;50.924;4.396;2022-08-21T14:07:42;28.30;74.00
19829;DHT22;10075;50.924;4.396;2022-08-21T14:10:13;28.50;72.90
19829;DHT22;10075;50.924;4.396;2022-08-21T14:12:42;28.60;71.00
19829;DHT22;10075;50.924;4.396;2022-08-21T14:15:13;28.60;70.30
19829;DHT22;10075;50.924;4.396;2022-08-21T14:17:41;28.50;71.30
19829;DHT22;10075;50.924;4.396;2022-08-21T14:20:10;28.30;72.20
19829;DHT22;10075;50.924;4.396;2022-08-21T14:22:40;28.30;73.30
19829;DHT22;10075;50.924;4.396;2022-08-21T14:25:11;28.30;72.70
19829;DHT22;10075;50.924;4.396;2022-08-21T14:27:43;28.30;71.80
19829;DHT22;10075;50.924;4.396;2022-08-21T14:30:16;28.30;72.20
19829;DHT22;10075;50.924;4.396;2022-08-21T14:32:45;28.40;72.40
19829;DHT22;10075;50.924;4.396;2022-08-21T14:35:12;28.60;72.30
19829;DHT22;10075;50.924;4.396;2022-08-21T14:37:42;28.80;72.70
19829;DHT22;10075;50.924;4.396;2022-08-21T14:40:11;29.00;70.40
19829;DHT22;10075;50.924;4.396;2022-08-21T14:42:40;29.10;71.50
19829;DHT22;10075;50.924;4.396;2022-08-21T14:45:13;29.20;72.00
19829;DHT22;10075;50.924;4.396;2022-08-21T14:47:41;29.40;71.50
19829;DHT22;10075;50.924;4.396;2022-08-21T14:50:09;29.50;71.20
19829;DHT22;10075;50.924;4.396;2022-08-21T14:52:36;29.60;69.90
19829;DHT22;10075;50.924;4.396;2022-08-21T14:55:05;29.80;68.40
19829;DHT22;10075;50.924;4.396;2022-08-21T14:57:33;30.00;69.90
19829;DHT22;10075;50.924;4.396;2022-08-21T15:00:00;30.40;69.80
19829;DHT22;10075;50.924;4.396;2022-08-21T15:02:29;30.80;67.70
19829;DHT22;10075;50.924;4.396;2022-08-21T15:04:56;30.90;66.20
19829;DHT22;10075;50.924;4.396;2022-08-21T15:07:23;30.90;66.50
19829;DHT22;10075;50.924;4.396;2022-08-21T15:09:50;30.80;65.60
19829;DHT22;10075;50.924;4.396;2022-08-21T15:12:17;30.50;65.40
19829;DHT22;10075;50.924;4.396;2022-08-21T15:14:44;30.30;66.10
19829;DHT22;10075;50.924;4.396;2022-08-21T15:17:11;30.20;65.80
19829;DHT22;10075;50.924;4.396;2022-08-21T15:19:40;30.00;67.60
19829;DHT22;10075;50.924;4.396;2022-08-21T15:22:07;29.80;68.30
19829;DHT22;10075;50.924;4.396;2022-08-21T15:24:34;29.50;68.80
19829;DHT22;10075;50.924;4.396;2022-08-21T15:27:02;29.40;69.70
19829;DHT22;10075;50.924;4.396;2022-08-21T15:29:31;29.30;68.90
19829;DHT22;10075;50.924;4.396;2022-08-21T15:32:00;29.20;69.20
19829;DHT22;10075;50.924;4.396;2022-08-21T15:34:29;29.00;70.00
19829;DHT22;10075;50.924;4.396;2022-08-21T15:36:58;28.80;70.30
19829;DHT22;10075;50.924;4.396;2022-08-21T15:39:26;28.80;70.20
19829;DHT22;10075;50.924;4.396;2022-08-21T15:41:53;28.80;70.60
19829;DHT22;10075;50.924;4.396;2022-08-21T15:44:20;28.80;70.20
19829;DHT22;10075;50.924;4.396;2022-08-21T15:46:47;28.80;70.50
19829;DHT22;10075;50.924;4.396;2022-08-21T15:49:14;28.80;70.30